Time;durP1;ratioP1;P1;durP2;ratioP2;P2;SDS_P1;SDS_P2;PMS_P1;PMS_P2;Temp;Humidity;BMP_temperature;BMP_pressure;BME280_temperature;BME280_humidity;BME280_pressure;Samples;Min_cycle;Max_cycle;Signal;HPM_P1;HPM_P2
2023/09/16 00:01:52;;;;;;;7.82;6.50;;;23.80;92.00;;;;;;5053167;28;20025;-92
2023/09/16 00:04:18;;;;;;;8.88;6.75;;;23.80;92.10;;;;;;5053067;28;20035;-89
2023/09/16 00:06:43;;;;;;;9.00;6.40;;;23.80;92.20;;;;;;5051974;28;20134;-88
2023/09/16 00:09:09;;;;;;;7.30;6.50;;;23.70;92.20;;;;;;5052985;28;20108;-90
2023/09/16 00:11:36;;;;;;;11.35;5.85;;;23.70;92.20;;;;;;5052075;28;20361;-89
2023/09/16 00:14:02;;;;;;;7.20;5.80;;;23.60;92.20;;;;;;5052941;28;20043;-92
2023/09/16 00:16:29;;;;;;;7.22;6.25;;;23.70;92.30;;;;;;5052832;28;20014;-92
2023/09/16 00:18:55;;;;;;;8.15;6.47;;;23.70;92.30;;;;;;5052827;28;20112;-92
2023/09/16 00:21:21;;;;;;;7.80;6.03;;;23.70;92.30;;;;;;5052029;28;20031;-91
2023/09/16 00:23:46;;;;;;;9.15;6.03;;;23.80;92.30;;;;;;5051498;28;20120;-93
2023/09/16 00:26:13;;;;;;;7.75;6.15;;;23.70;92.30;;;;;;5056067;28;20100;-92
2023/09/16 00:28:40;;;;;;;8.70;6.55;;;23.80;92.30;;;;;;5056787;28;20032;-91
2023/09/16 00:31:07;;;;;;;9.50;6.60;;;23.80;92.30;;;;;;5055768;28;20108;-90
2023/09/16 00:33:33;;;;;;;7.40;5.78;;;23.80;92.30;;;;;;5056951;28;20496;-91
2023/09/16 00:35:58;;;;;;;7.13;5.82;;;23.80;92.20;;;;;;5056149;28;20140;-91
2023/09/16 00:38:24;;;;;;;8.35;5.90;;;23.80;92.20;;;;;;5056518;28;20048;-92
2023/09/16 00:40:51;;;;;;;6.88;5.80;;;23.80;92.10;;;;;;5055509;28;20013;-90
2023/09/16 00:43:16;;;;;;;7.15;5.35;;;23.80;92.10;;;;;;5056453;28;20555;-90
2023/09/16 00:45:42;;;;;;;8.18;5.75;;;23.80;92.10;;;;;;5055988;28;20049;-90
2023/09/16 00:48:12;;;;;;;9.18;7.07;;;23.80;92.10;;;;;;5056589;28;20037;-90
2023/09/16 00:50:38;;;;;;;6.95;6.25;;;23.80;92.10;;;;;;5054469;28;20045;-90
2023/09/16 00:53:04;;;;;;;8.52;7.13;;;23.80;92.10;;;;;;5056054;28;20032;-88
2023/09/16 00:55:30;;;;;;;8.90;6.75;;;23.80;92.10;;;;;;5054004;28;20025;-89
2023/09/16 00:57:57;;;;;;;8.52;6.18;;;23.80;92.10;;;;;;5055843;28;20028;-89
2023/09/16 01:00:26;;;;;;;7.45;5.80;;;23.80;92.10;;;;;;5055723;28;20083;-89
2023/09/16 01:02:53;;;;;;;8.30;6.28;;;23.70;92.10;;;;;;5055587;28;20052;-90
2023/09/16 01:05:19;;;;;;;8.98;6.50;;;23.70;92.10;;;;;;5055168;28;20059;-90
2023/09/16 01:07:49;;;;;;;8.23;6.47;;;23.70;92.10;;;;;;5056316;28;20025;-92
2023/09/16 01:10:18;;;;;;;9.25;6.97;;;23.70;92.20;;;;;;5055463;28;20424;-91
2023/09/16 01:12:44;;;;;;;7.88;7.03;;;23.70;92.10;;;;;;5055726;28;20053;-91
2023/09/16 01:15:13;;;;;;;8.05;6.90;;;23.70;92.10;;;;;;5054912;28;20032;-91
2023/09/16 01:18:13;;;;;;;8.25;7.05;;;23.70;92.00;;;;;;5053970;28;20040;-91
2023/09/16 01:20:39;;;;;;;8.07;6.82;;;23.60;91.90;;;;;;5048621;28;20044;-91
2023/09/16 01:23:08;;;;;;;8.02;7.00;;;23.60;91.90;;;;;;5055407;28;20097;-91
2023/09/16 01:25:34;;;;;;;11.88;7.07;;;23.60;91.90;;;;;;5055351;28;20029;-88
2023/09/16 01:28:00;;;;;;;8.82;6.97;;;23.60;91.90;;;;;;5055497;28;20392;-88
2023/09/16 01:30:27;;;;;;;8.43;6.50;;;23.60;91.90;;;;;;5054692;28;20033;-89
2023/09/16 01:32:55;;;;;;;7.72;6.45;;;23.60;91.80;;;;;;5054751;28;20142;-93
2023/09/16 01:35:23;;;;;;;7.78;6.90;;;23.60;91.80;;;;;;5055233;28;20100;-92
2023/09/16 01:37:50;;;;;;;8.23;6.57;;;23.50;91.80;;;;;;5054806;28;20025;-92
2023/09/16 01:40:17;;;;;;;8.70;5.95;;;23.50;91.80;;;;;;5054552;28;20045;-92
2023/09/16 01:42:45;;;;;;;6.80;5.82;;;23.50;91.80;;;;;;5053960;28;20032;-92
2023/09/16 01:45:10;;;;;;;8.23;6.65;;;23.50;91.80;;;;;;5054849;28;20432;-91
2023/09/16 01:47:36;;;;;;;8.18;6.45;;;23.50;91.60;;;;;;5055213;28;20034;-91
2023/09/16 01:50:02;;;;;;;8.35;6.57;;;23.50;91.60;;;;;;5054500;28;20064;-91
2023/09/16 01:52:28;;;;;;;9.45;6.45;;;23.50;91.60;;;;;;5055053;28;20036;-92
2023/09/16 01:54:54;;;;;;;7.50;6.57;;;23.40;91.50;;;;;;5054756;28;20072;-91
2023/09/16 01:57:19;;;;;;;8.63;5.88;;;23.40;91.50;;;;;;5055360;28;20025;-91
2023/09/16 01:59:45;;;;;;;8.43;6.53;;;23.40;91.50;;;;;;5054382;28;20024;-92
2023/09/16 02:02:11;;;;;;;7.55;6.75;;;23.40;91.50;;;;;;5054766;28;20369;-92
2023/09/16 02:04:38;;;;;;;8.50;6.38;;;23.40;91.50;;;;;;5053387;28;20061;-92
2023/09/16 02:07:04;;;;;;;7.47;6.20;;;23.40;91.50;;;;;;5054841;28;20029;-90
2023/09/16 02:09:30;;;;;;;6.80;5.75;;;23.40;91.50;;;;;;5054169;28;20036;-90
2023/09/16 02:11:55;;;;;;;6.72;6.03;;;23.40;91.50;;;;;;5054372;28;20163;-90
2023/09/16 02:14:21;;;;;;;7.28;6.20;;;23.40;91.50;;;;;;5054292;28;20060;-90
2023/09/16 02:16:47;;;;;;;9.00;5.90;;;23.40;91.50;;;;;;5054701;28;20110;-91
2023/09/16 02:19:13;;;;;;;8.35;6.57;;;23.40;91.40;;;;;;5055210;28;20083;-92
2023/09/16 02:21:39;;;;;;;7.22;5.78;;;23.40;91.40;;;;;;5055067;28;20476;-92
2023/09/16 02:24:05;;;;;;;9.38;6.05;;;23.40;91.40;;;;;;5054691;28;20029;-92
2023/09/16 02:26:30;;;;;;;8.50;6.07;;;23.40;91.40;;;;;;5054851;28;20100;-92
2023/09/16 02:28:56;;;;;;;6.80;5.63;;;23.40;91.50;;;;;;5054773;28;20556;-93
2023/09/16 02:31:26;;;;;;;7.55;6.18;;;23.30;91.50;;;;;;5054714;28;20024;-93
2023/09/16 02:33:58;;;;;;;6.57;5.65;;;23.30;91.50;;;;;;5053638;28;20082;-92
2023/09/16 02:36:26;;;;;;;7.00;5.88;;;23.30;91.50;;;;;;5054570;28;20084;-91
2023/09/16 02:38:52;;;;;;;10.98;5.50;;;23.30;91.60;;;;;;5054255;28;20029;-92
2023/09/16 02:41:18;;;;;;;8.52;5.70;;;23.30;91.60;;;;;;5054559;28;20444;-93
2023/09/16 02:43:46;;;;;;;8.80;6.78;;;23.20;91.60;;;;;;5053986;28;20025;-91
2023/09/16 02:46:12;;;;;;;6.10;5.13;;;23.20;91.60;;;;;;5053292;28;20029;-91
2023/09/16 02:48:38;;;;;;;8.60;6.43;;;23.20;91.60;;;;;;5054510;28;20389;-91
2023/09/16 02:51:03;;;;;;;8.13;5.93;;;23.20;91.50;;;;;;5052150;28;20049;-90
2023/09/16 02:53:32;;;;;;;7.15;6.45;;;23.20;91.50;;;;;;5054268;28;20025;-89
2023/09/16 02:55:58;;;;;;;9.45;7.63;;;23.20;91.50;;;;;;5053212;28;20385;-90
2023/09/16 02:58:24;;;;;;;14.20;10.20;;;23.10;91.50;;;;;;5053350;28;20039;-91
2023/09/16 03:00:49;;;;;;;8.70;6.47;;;23.00;91.70;;;;;;5053597;28;20029;-90
2023/09/16 03:03:15;;;;;;;12.20;10.32;;;22.80;91.80;;;;;;5054691;28;20092;-90
2023/09/16 03:05:45;;;;;;;9.50;7.47;;;22.80;92.10;;;;;;5053329;28;20432;-90
2023/09/16 03:08:11;;;;;;;9.10;7.07;;;22.70;92.20;;;;;;5054381;28;20021;-90
2023/09/16 03:10:37;;;;;;;9.38;6.88;;;22.60;92.20;;;;;;5052991;28;20091;-90
2023/09/16 03:13:03;;;;;;;8.98;7.00;;;22.60;92.20;;;;;;5054158;28;20036;-90
2023/09/16 03:15:28;;;;;;;9.35;6.60;;;22.60;92.20;;;;;;5053260;28;20032;-89
2023/09/16 03:17:55;;;;;;;11.32;7.88;;;22.60;92.20;;;;;;5053551;28;20049;-90
2023/09/16 03:20:21;;;;;;;11.77;7.93;;;22.70;92.20;;;;;;5052175;28;20116;-89
2023/09/16 03:22:47;;;;;;;9.05;7.63;;;22.70;92.20;;;;;;5053941;28;20024;-89
2023/09/16 03:25:12;;;;;;;10.48;7.05;;;22.70;92.20;;;;;;5053704;28;20064;-90
2023/09/16 03:27:38;;;;;;;9.63;6.55;;;22.70;92.10;;;;;;5053741;28;20079;-88
2023/09/16 03:30:05;;;;;;;8.70;7.05;;;22.70;92.10;;;;;;5052387;28;20033;-91
2023/09/16 03:32:30;;;;;;;10.43;7.72;;;22.70;92.10;;;;;;5054315;28;20025;-91
2023/09/16 03:34:56;;;;;;;9.90;7.57;;;22.60;92.10;;;;;;5053096;28;20028;-91
2023/09/16 03:37:22;;;;;;;11.75;7.70;;;22.60;92.10;;;;;;5054298;28;20021;-91
2023/09/16 03:39:47;;;;;;;8.95;7.75;;;22.70;92.10;;;;;;5054351;28;20087;-92
2023/09/16 03:42:13;;;;;;;11.25;7.45;;;22.60;92.00;;;;;;5054325;28;20519;-91
2023/09/16 03:44:39;;;;;;;11.20;7.95;;;22.60;92.00;;;;;;5054554;28;20078;-91
2023/09/16 03:47:06;;;;;;;8.82;6.80;;;22.60;92.00;;;;;;5054661;28;20473;-91
2023/09/16 03:49:32;;;;;;;7.70;6.47;;;22.60;91.90;;;;;;5054512;28;20058;-92
2023/09/16 03:51:57;;;;;;;7.53;5.32;;;22.60;91.90;;;;;;5053985;28;20044;-90
2023/09/16 03:54:23;;;;;;;7.35;6.20;;;22.60;91.80;;;;;;5052366;28;20029;-89
2023/09/16 03:56:49;;;;;;;8.30;6.00;;;22.60;91.70;;;;;;5054053;28;20457;-93
2023/09/16 03:59:14;;;;;;;7.57;5.85;;;22.60;91.60;;;;;;5054581;28;20021;-93
2023/09/16 04:01:40;;;;;;;6.43;5.72;;;22.60;91.60;;;;;;5058035;28;20053;-92
2023/09/16 04:04:07;;;;;;;7.10;5.82;;;22.60;91.50;;;;;;5057151;28;20028;-92
2023/09/16 04:06:33;;;;;;;8.95;5.47;;;22.60;91.50;;;;;;5058043;28;20083;-91
2023/09/16 04:08:58;;;;;;;12.55;4.68;;;22.50;91.50;;;;;;5056987;28;20021;-93
2023/09/16 04:11:24;;;;;;;6.03;4.57;;;22.50;91.50;;;;;;5058071;28;20033;-91
2023/09/16 04:13:49;;;;;;;7.43;4.95;;;22.50;91.40;;;;;;5057020;28;20025;-92
2023/09/16 04:16:15;;;;;;;6.32;4.70;;;22.50;91.40;;;;;;5057706;28;20067;-91
2023/09/16 04:18:41;;;;;;;7.13;5.00;;;22.50;91.30;;;;;;5057001;28;20021;-93
2023/09/16 04:21:06;;;;;;;6.78;4.90;;;22.50;91.20;;;;;;5056654;28;20078;-90
2023/09/16 04:23:34;;;;;;;5.43;4.90;;;22.50;91.10;;;;;;5055019;28;20051;-89
2023/09/16 04:26:01;;;;;;;5.45;4.10;;;22.50;91.10;;;;;;5056234;28;20462;-91
2023/09/16 04:28:27;;;;;;;8.40;4.32;;;22.60;91.10;;;;;;5054004;28;20036;-89
2023/09/16 04:30:53;;;;;;;8.15;4.40;;;22.60;91.10;;;;;;5056404;28;20032;-89
2023/09/16 04:33:20;;;;;;;9.23;4.32;;;22.60;91.20;;;;;;5043346;28;20423;-92
2023/09/16 04:35:46;;;;;;;7.03;4.13;;;22.60;90.80;;;;;;5055806;28;20021;-88
2023/09/16 04:38:16;;;;;;;4.30;3.65;;;22.60;90.70;;;;;;5054544;28;20154;-77
2023/09/16 04:40:42;;;;;;;6.20;3.95;;;22.60;90.60;;;;;;5054236;28;20025;-79
2023/09/16 04:43:09;;;;;;;6.70;4.10;;;22.60;90.60;;;;;;5043618;28;20022;-78
2023/09/16 04:45:35;;;;;;;4.68;4.03;;;22.60;90.60;;;;;;5053379;28;20060;-79
2023/09/16 04:48:00;;;;;;;5.18;3.78;;;22.50;90.60;;;;;;5051828;28;20029;-80
2023/09/16 04:50:29;;;;;;;5.18;4.38;;;22.50;90.70;;;;;;5052539;28;20377;-78
2023/09/16 04:52:56;;;;;;;5.55;4.18;;;22.50;90.60;;;;;;5055098;28;20072;-78
2023/09/16 04:55:21;;;;;;;5.85;4.57;;;22.50;90.60;;;;;;5050497;28;20511;-78
2023/09/16 04:57:47;;;;;;;6.70;4.13;;;22.50;90.60;;;;;;5051647;28;20036;-78
2023/09/16 05:00:13;;;;;;;5.45;3.90;;;22.50;90.60;;;;;;5054002;28;20025;-78
2023/09/16 05:02:38;;;;;;;5.47;4.53;;;22.50;90.80;;;;;;5053725;28;20029;-78
2023/09/16 05:05:05;;;;;;;4.95;4.25;;;22.50;90.50;;;;;;5050757;28;20032;-77
2023/09/16 05:07:30;;;;;;;9.13;4.70;;;22.50;90.50;;;;;;5054449;28;20040;-77
2023/09/16 05:09:56;;;;;;;5.45;4.40;;;22.50;90.50;;;;;;5053809;28;20041;-86
2023/09/16 05:12:22;;;;;;;4.70;3.95;;;22.50;90.80;;;;;;5045342;28;20033;-86
2023/09/16 05:14:49;;;;;;;7.97;4.53;;;22.50;90.50;;;;;;5049333;28;20040;-86
2023/09/16 05:17:15;;;;;;;6.65;4.35;;;22.50;90.60;;;;;;5055037;28;20055;-86
2023/09/16 05:19:41;;;;;;;6.65;4.30;;;22.50;90.50;;;;;;5050123;28;20452;-86
2023/09/16 05:22:06;;;;;;;6.07;4.50;;;22.50;90.50;;;;;;5046090;28;20033;-86
2023/09/16 05:24:32;;;;;;;5.70;4.55;;;22.50;90.60;;;;;;5054578;28;20456;-86
2023/09/16 05:26:58;;;;;;;11.65;6.38;;;22.50;90.50;;;;;;5055299;28;20035;-86
2023/09/16 05:29:24;;;;;;;12.18;4.82;;;22.40;90.50;;;;;;5053709;28;20029;-86
2023/09/16 05:31:50;;;;;;;7.70;5.03;;;22.30;90.60;;;;;;5045992;28;20086;-85
2023/09/16 05:34:15;;;;;;;7.93;6.60;;;22.20;90.80;;;;;;5043752;28;20369;-86
2023/09/16 05:36:41;;;;;;;7.75;5.10;;;22.00;91.00;;;;;;5053694;28;20518;-87
2023/09/16 05:39:07;;;;;;;13.52;7.03;;;21.90;91.20;;;;;;5051172;28;20024;-88
2023/09/16 05:41:33;;;;;;;8.93;7.25;;;21.80;91.50;;;;;;5053873;28;20025;-85
2023/09/16 05:43:58;;;;;;;10.52;7.93;;;21.70;91.50;;;;;;5040589;28;20018;-86
2023/09/16 05:46:24;;;;;;;11.15;7.63;;;21.60;91.60;;;;;;5054506;28;20392;-86
2023/09/16 05:48:50;;;;;;;5.90;5.22;;;21.40;92.00;;;;;;5054771;28;20524;-88
2023/09/16 05:51:16;;;;;;;7.63;4.82;;;21.40;92.10;;;;;;5052613;28;20064;-82
2023/09/16 05:53:42;;;;;;;7.35;5.30;;;21.40;92.10;;;;;;5054175;28;20033;-84
2023/09/16 05:56:08;;;;;;;6.53;5.07;;;21.50;92.00;;;;;;5054275;28;21001;-87
2023/09/16 05:58:35;;;;;;;6.18;4.05;;;21.60;91.90;;;;;;5050812;28;20060;-87
2023/09/16 06:01:01;;;;;;;6.18;4.35;;;21.60;91.80;;;;;;5052557;28;20029;-86
2023/09/16 06:03:27;;;;;;;6.68;4.90;;;21.70;91.70;;;;;;5051720;28;20033;-79
2023/09/16 06:05:57;;;;;;;4.65;3.75;;;21.80;91.60;;;;;;5051438;28;20797;-78
2023/09/16 06:08:23;;;;;;;5.10;4.18;;;21.90;91.50;;;;;;5045377;28;20512;-87
2023/09/16 06:10:49;;;;;;;6.28;4.18;;;21.90;91.50;;;;;;5049281;28;20033;-87
2023/09/16 06:13:14;;;;;;;5.32;3.95;;;22.00;91.20;;;;;;5052123;28;20032;-86
2023/09/16 06:15:40;;;;;;;4.70;3.97;;;22.00;91.10;;;;;;5052095;28;20032;-86
2023/09/16 06:18:06;;;;;;;7.80;4.57;;;22.10;90.90;;;;;;5050322;28;20025;-87
2023/09/16 06:20:32;;;;;;;5.50;4.28;;;22.10;90.80;;;;;;5049213;28;20107;-83
2023/09/16 06:23:02;;;;;;;6.28;3.58;;;22.10;90.70;;;;;;5052785;28;20323;-86
2023/09/16 06:25:28;;;;;;;5.70;4.05;;;22.20;90.80;;;;;;5052046;28;20065;-86
2023/09/16 06:27:53;;;;;;;6.13;3.88;;;22.20;90.70;;;;;;5053345;28;20043;-86
2023/09/16 06:30:19;;;;;;;6.65;3.72;;;22.30;90.50;;;;;;5053636;28;20457;-84
2023/09/16 06:32:45;;;;;;;6.22;4.10;;;22.40;90.50;;;;;;5053259;28;20036;-84
2023/09/16 06:35:10;;;;;;;3.13;2.83;;;22.40;90.40;;;;;;5053658;28;20033;-84
2023/09/16 06:37:36;;;;;;;3.95;3.55;;;22.50;90.40;;;;;;5052914;28;20029;-85
2023/09/16 06:40:02;;;;;;;5.20;3.28;;;22.50;90.40;;;;;;5053843;28;20039;-88
2023/09/16 06:42:27;;;;;;;4.22;3.42;;;22.50;90.50;;;;;;5053217;28;20025;-87
2023/09/16 06:44:55;;;;;;;4.72;3.95;;;22.60;90.40;;;;;;5053873;28;20039;-82
2023/09/16 06:47:27;;;;;;;4.35;3.58;;;22.70;90.30;;;;;;5054582;28;20033;-84
2023/09/16 06:49:54;;;;;;;5.18;3.20;;;22.80;90.20;;;;;;5053591;28;20496;-82
2023/09/16 06:52:22;;;;;;;5.88;3.28;;;22.80;90.20;;;;;;5051880;28;20025;-84
2023/09/16 06:54:48;;;;;;;3.70;3.30;;;22.90;90.00;;;;;;5052086;28;20115;-82
2023/09/16 06:57:14;;;;;;;4.78;3.33;;;22.90;90.00;;;;;;5053401;28;20033;-87
2023/09/16 06:59:40;;;;;;;4.80;3.45;;;22.90;90.10;;;;;;5053533;28;20048;-87
2023/09/16 07:02:06;;;;;;;8.70;4.38;;;22.90;90.00;;;;;;5052941;28;20029;-88
2023/09/16 07:04:31;;;;;;;4.32;3.50;;;23.00;90.10;;;;;;5051104;28;20381;-88
2023/09/16 07:06:57;;;;;;;4.40;3.65;;;23.00;90.00;;;;;;5048608;28;20079;-89
2023/09/16 07:09:23;;;;;;;7.65;3.42;;;23.00;90.00;;;;;;5050874;28;20615;-86
2023/09/16 07:11:48;;;;;;;5.25;3.67;;;23.00;90.00;;;;;;5048342;28;20091;-87
2023/09/16 07:14:14;;;;;;;5.10;3.92;;;23.10;90.00;;;;;;5053169;28;20017;-87
2023/09/16 07:16:40;;;;;;;5.97;3.70;;;23.10;90.00;;;;;;5053184;28;20037;-87
2023/09/16 07:19:07;;;;;;;4.63;3.95;;;23.20;90.00;;;;;;5052885;28;20043;-87
2023/09/16 07:21:34;;;;;;;5.75;3.35;;;23.20;90.10;;;;;;5052466;28;20041;-87
2023/09/16 07:24:01;;;;;;;4.70;3.92;;;23.20;90.10;;;;;;5052823;28;20086;-87
2023/09/16 07:26:28;;;;;;;5.53;3.70;;;23.20;90.00;;;;;;5052531;28;20033;-87
2023/09/16 07:28:54;;;;;;;5.00;2.80;;;23.20;90.00;;;;;;5054174;28;20052;-87
2023/09/16 07:31:19;;;;;;;7.75;3.80;;;23.20;90.10;;;;;;5052373;28;20063;-87
2023/09/16 07:33:48;;;;;;;3.92;3.53;;;23.40;90.20;;;;;;5052530;28;20052;-87
2023/09/16 07:36:14;;;;;;;6.53;3.45;;;23.40;90.10;;;;;;5052337;28;20477;-87
2023/09/16 07:38:40;;;;;;;5.00;3.50;;;23.50;90.20;;;;;;5052849;28;20070;-87
2023/09/16 07:41:06;;;;;;;9.23;3.50;;;23.60;90.20;;;;;;5052547;28;20037;-87
2023/09/16 07:43:31;;;;;;;5.45;3.97;;;23.60;90.10;;;;;;5052996;28;20025;-87
2023/09/16 07:45:59;;;;;;;5.65;3.83;;;23.70;90.10;;;;;;5052502;28;20171;-87
2023/09/16 07:48:25;;;;;;;5.97;4.43;;;23.80;89.80;;;;;;5052912;28;20017;-87
2023/09/16 07:50:50;;;;;;;6.90;4.15;;;23.80;89.40;;;;;;5052627;28;20543;-87
2023/09/16 07:53:16;;;;;;;11.50;4.93;;;23.80;89.10;;;;;;5052849;28;20032;-87
2023/09/16 07:55:42;;;;;;;5.07;3.90;;;23.80;89.10;;;;;;5052538;28;20483;-87
2023/09/16 07:58:08;;;;;;;5.32;3.38;;;23.90;89.40;;;;;;5052955;28;20091;-87
2023/09/16 08:00:34;;;;;;;8.68;4.22;;;23.90;89.40;;;;;;5052770;28;20052;-87
2023/09/16 08:02:59;;;;;;;6.20;4.63;;;24.00;89.30;;;;;;5052838;28;20478;-87
2023/09/16 08:05:27;;;;;;;3.40;2.90;;;24.00;88.60;;;;;;5051628;28;20036;-87
2023/09/16 08:07:52;;;;;;;6.55;3.60;;;24.10;88.80;;;;;;5052666;28;20099;-87
2023/09/16 08:10:18;;;;;;;5.63;3.13;;;24.20;89.40;;;;;;5051253;28;20121;-88
2023/09/16 08:12:44;;;;;;;4.88;3.95;;;24.30;89.00;;;;;;5051877;28;20040;-88
2023/09/16 08:15:10;;;;;;;7.82;3.95;;;24.40;88.10;;;;;;5050900;28;20033;-87
2023/09/16 08:17:37;;;;;;;4.82;3.03;;;24.40;87.80;;;;;;5052827;28;20025;-86
2023/09/16 08:20:05;;;;;;;5.72;3.78;;;24.50;88.10;;;;;;5051559;28;20017;-87
2023/09/16 08:22:30;;;;;;;2.55;2.33;;;24.50;87.50;;;;;;5049804;28;20357;-85
2023/09/16 08:24:56;;;;;;;5.30;3.50;;;24.60;87.80;;;;;;5048923;28;20491;-86
2023/09/16 08:27:22;;;;;;;7.65;3.03;;;24.70;87.70;;;;;;5051708;28;20558;-88
2023/09/16 08:29:49;;;;;;;4.60;2.40;;;24.80;87.50;;;;;;5052156;28;20542;-90
2023/09/16 08:32:15;;;;;;;3.50;2.20;;;25.00;86.90;;;;;;5051032;28;20507;-89
2023/09/16 08:34:41;;;;;;;2.65;2.10;;;25.10;87.40;;;;;;5049098;28;20060;-88
2023/09/16 08:37:07;;;;;;;12.68;2.80;;;25.30;87.40;;;;;;5041924;28;20096;-92
2023/09/16 08:39:32;;;;;;;3.08;2.20;;;25.50;87.30;;;;;;5052352;28;20052;-92
2023/09/16 08:42:16;;;;;;;5.55;3.58;;;25.60;86.70;;;;;;5045159;28;20022;-91
2023/09/16 08:44:44;;;;;;;2.83;1.95;;;25.80;84.80;;;;;;5043652;28;20108;-90
2023/09/16 08:47:17;;;;;;;2.42;1.88;;;25.90;84.30;;;;;;5055628;28;20025;-92
2023/09/16 08:49:49;;;;;;;2.38;2.15;;;25.90;84.30;;;;;;5055662;28;20037;-92
2023/09/16 08:52:17;;;;;;;4.65;1.92;;;26.00;84.50;;;;;;5056261;28;20391;-93
2023/09/16 08:54:46;;;;;;;4.15;2.00;;;26.10;84.60;;;;;;5055793;28;20028;-85
2023/09/16 08:57:13;;;;;;;2.10;1.85;;;26.30;84.60;;;;;;5051484;28;20029;-84
2023/09/16 08:59:40;;;;;;;4.32;1.92;;;26.50;84.50;;;;;;5039160;28;20033;-81
2023/09/16 09:02:10;;;;;;;2.17;1.88;;;26.60;84.10;;;;;;5035074;28;20547;-81
2023/09/16 09:04:38;;;;;;;2.45;1.80;;;26.80;83.90;;;;;;5053347;28;20029;-81
2023/09/16 09:07:06;;;;;;;3.40;1.95;;;27.00;82.80;;;;;;5053068;28;20044;-80
2023/09/16 09:09:32;;;;;;;2.10;1.38;;;27.10;82.80;;;;;;5054493;28;20037;-80
2023/09/16 09:11:58;;;;;;;2.40;1.92;;;27.20;81.60;;;;;;5052605;28;20029;-80
2023/09/16 09:14:25;;;;;;;2.00;1.60;;;27.20;81.70;;;;;;5053344;28;20048;-81
2023/09/16 09:16:53;;;;;;;2.20;1.55;;;27.30;82.10;;;;;;5052368;28;20351;-80
2023/09/16 09:19:20;;;;;;;3.55;1.70;;;27.30;81.50;;;;;;5055424;28;20059;-80
2023/09/16 09:21:47;;;;;;;4.45;2.00;;;27.40;81.80;;;;;;5053584;28;20033;-80
2023/09/16 09:24:13;;;;;;;2.72;1.92;;;27.30;80.50;;;;;;5055718;28;20027;-81
2023/09/16 09:26:39;;;;;;;2.33;1.85;;;27.30;81.20;;;;;;5054472;28;20119;-82
2023/09/16 09:29:09;;;;;;;3.38;1.50;;;27.30;81.60;;;;;;5054218;28;20080;-82
2023/09/16 09:31:36;;;;;;;6.07;1.98;;;27.30;82.00;;;;;;5055090;28;20032;-80
2023/09/16 09:34:02;;;;;;;1.80;1.55;;;27.40;82.30;;;;;;5055668;28;20044;-80
2023/09/16 09:36:32;;;;;;;3.30;1.55;;;27.50;81.90;;;;;;5051134;28;20036;-80
2023/09/16 09:38:58;;;;;;;2.33;2.00;;;27.50;81.70;;;;;;5053387;28;20029;-80
2023/09/16 09:41:24;;;;;;;3.03;1.73;;;27.60;81.00;;;;;;5054769;28;20094;-80
2023/09/16 09:43:52;;;;;;;1.77;1.58;;;27.60;80.70;;;;;;5054262;28;20021;-80
2023/09/16 09:46:18;;;;;;;2.63;2.00;;;27.80;80.30;;;;;;5053647;28;20033;-80
2023/09/16 09:48:44;;;;;;;1.88;1.42;;;27.80;79.80;;;;;;5052603;28;20037;-80
2023/09/16 09:51:10;;;;;;;2.25;1.80;;;27.90;79.90;;;;;;5051528;28;20582;-80
2023/09/16 09:53:36;;;;;;;1.73;1.60;;;28.00;79.90;;;;;;5052991;28;20044;-80
2023/09/16 09:56:02;;;;;;;2.45;1.55;;;28.10;79.80;;;;;;5051506;28;20029;-82
2023/09/16 09:58:30;;;;;;;2.35;1.60;;;28.10;79.40;;;;;;5052573;28;20020;-79
2023/09/16 10:00:55;;;;;;;2.20;2.00;;;28.30;79.30;;;;;;5052762;28;20033;-79
2023/09/16 10:03:22;;;;;;;2.65;1.80;;;28.30;79.10;;;;;;5054136;28;20024;-79
2023/09/16 10:05:49;;;;;;;1.75;1.58;;;28.40;78.60;;;;;;5046070;28;20029;-79
2023/09/16 10:08:15;;;;;;;4.55;1.80;;;28.50;78.20;;;;;;5053246;28;20032;-78
2023/09/16 10:10:41;;;;;;;2.38;1.70;;;28.60;78.20;;;;;;5052901;28;20635;-78
2023/09/16 10:13:07;;;;;;;3.35;1.83;;;28.70;78.30;;;;;;5050831;28;20140;-78
2023/09/16 10:15:36;;;;;;;2.40;1.85;;;28.90;77.90;;;;;;5054769;28;20036;-76
2023/09/16 10:18:07;;;;;;;2.20;1.80;;;29.00;76.90;;;;;;5052196;28;20120;-79
2023/09/16 10:20:38;;;;;;;1.73;1.63;;;29.20;76.00;;;;;;5054392;28;20028;-79
2023/09/16 10:23:05;;;;;;;1.92;1.70;;;29.30;75.90;;;;;;5052719;28;20477;-79
2023/09/16 10:25:32;;;;;;;3.38;1.83;;;29.30;75.50;;;;;;5046611;28;20021;-79
2023/09/16 10:28:03;;;;;;;1.90;1.80;;;29.30;74.70;;;;;;5044967;28;20088;-80
2023/09/16 10:30:30;;;;;;;1.98;1.77;;;29.20;74.80;;;;;;5054030;28;20422;-80
2023/09/16 10:33:00;;;;;;;3.15;2.10;;;29.00;74.70;;;;;;5053686;28;20082;-79
2023/09/16 10:35:28;;;;;;;3.20;2.00;;;28.90;75.10;;;;;;5054150;28;20056;-79
2023/09/16 10:37:56;;;;;;;3.97;1.77;;;28.70;75.40;;;;;;5052848;28;20029;-79
2023/09/16 10:40:23;;;;;;;1.98;1.77;;;28.60;75.80;;;;;;5053734;28;20028;-79
2023/09/16 10:42:51;;;;;;;1.83;1.63;;;28.40;76.00;;;;;;5053329;28;20037;-79
2023/09/16 10:45:18;;;;;;;2.33;1.98;;;28.30;76.30;;;;;;5053835;28;20028;-79
2023/09/16 10:47:47;;;;;;;2.20;2.00;;;28.20;76.50;;;;;;5052505;28;20029;-79
2023/09/16 10:50:13;;;;;;;5.35;2.05;;;28.10;76.90;;;;;;5053729;28;20072;-79
2023/09/16 10:53:05;;;;;;;7.20;2.40;;;28.00;77.30;;;;;;5048818;28;20055;-79
2023/09/16 10:55:43;;;;;;;3.03;2.35;;;27.90;77.90;;;;;;5052935;28;20029;-79
2023/09/16 10:58:29;;;;;;;5.22;2.53;;;27.80;78.40;;;;;;5052407;28;20025;-79
2023/09/16 11:00:57;;;;;;;5.63;2.53;;;27.80;79.10;;;;;;5061376;28;20830;-79
2023/09/16 11:03:29;;;;;;;5.75;2.80;;;27.70;79.30;;;;;;5052614;28;20107;-79
2023/09/16 11:05:58;;;;;;;4.40;1.98;;;27.70;79.70;;;;;;5052966;28;20060;-78
2023/09/16 11:08:26;;;;;;;3.38;3.08;;;27.70;79.90;;;;;;5050213;28;20029;-79
2023/09/16 11:10:55;;;;;;;3.38;2.38;;;27.60;80.80;;;;;;5033935;28;20035;-79
2023/09/16 11:13:25;;;;;;;3.78;2.03;;;27.60;80.40;;;;;;5052844;28;20036;-79
2023/09/16 11:15:51;;;;;;;3.35;2.15;;;27.60;80.50;;;;;;5047386;28;20098;-79
2023/09/16 11:18:18;;;;;;;2.45;2.25;;;27.50;80.10;;;;;;5051967;28;20338;-79
2023/09/16 11:20:43;;;;;;;3.75;2.30;;;27.50;79.50;;;;;;5047084;28;20064;-78
2023/09/16 11:23:10;;;;;;;3.22;2.40;;;27.50;79.30;;;;;;5051839;28;20408;-86
2023/09/16 11:25:37;;;;;;;3.47;2.40;;;27.40;79.60;;;;;;5051783;28;20044;-87
2023/09/16 11:28:13;;;;;;;2.85;2.60;;;27.40;80.00;;;;;;5052831;28;20035;-88
2023/09/16 11:30:45;;;;;;;2.75;2.50;;;27.40;80.40;;;;;;5052873;28;20032;-88
2023/09/16 11:33:33;;;;;;;4.35;2.70;;;27.40;80.70;;;;;;5052536;28;20028;-88
2023/09/16 11:36:05;;;;;;;3.70;2.70;;;27.40;81.30;;;;;;5052346;28;20029;-87
2023/09/16 11:38:31;;;;;;;2.50;2.30;;;27.40;81.60;;;;;;5053018;28;20021;-86
2023/09/16 11:40:56;;;;;;;3.75;2.83;;;27.40;81.60;;;;;;5049204;28;20017;-88
2023/09/16 11:43:22;;;;;;;2.85;2.08;;;27.40;81.40;;;;;;5052968;28;20025;-87
2023/09/16 11:45:48;;;;;;;2.55;2.35;;;27.30;81.20;;;;;;5043082;28;20431;-87
2023/09/16 11:48:14;;;;;;;2.38;2.17;;;27.30;81.70;;;;;;5051318;28;20040;-87
2023/09/16 11:50:39;;;;;;;3.58;2.17;;;27.30;81.80;;;;;;5052149;28;20378;-87
2023/09/16 11:53:05;;;;;;;4.80;2.47;;;27.30;81.80;;;;;;5052349;28;20090;-86
2023/09/16 11:55:31;;;;;;;2.95;2.63;;;27.30;82.00;;;;;;5050528;28;20470;-79
2023/09/16 11:57:57;;;;;;;2.60;2.30;;;27.20;82.10;;;;;;5052591;28;20025;-79
2023/09/16 12:00:24;;;;;;;3.05;2.28;;;27.20;82.10;;;;;;5052262;28;20075;-79
2023/09/16 12:02:50;;;;;;;3.15;2.38;;;27.20;82.30;;;;;;5052611;28;20377;-80
2023/09/16 12:05:18;;;;;;;4.78;2.72;;;27.20;82.60;;;;;;5051869;28;20029;-80
2023/09/16 12:07:44;;;;;;;2.20;1.90;;;27.10;82.40;;;;;;5051545;28;20029;-80
2023/09/16 12:10:10;;;;;;;2.95;2.35;;;27.10;82.50;;;;;;5051995;28;20388;-79
2023/09/16 12:12:36;;;;;;;3.67;2.60;;;27.10;83.40;;;;;;5051416;28;20028;-80
2023/09/16 12:15:02;;;;;;;3.00;2.70;;;27.10;83.10;;;;;;5051362;28;20021;-80
2023/09/16 12:17:28;;;;;;;3.80;2.47;;;27.10;83.20;;;;;;5050319;28;20040;-80
2023/09/16 12:19:56;;;;;;;3.33;2.42;;;27.10;83.20;;;;;;5052431;28;20025;-79
2023/09/16 12:22:22;;;;;;;2.63;2.05;;;27.20;83.60;;;;;;5055380;28;20057;-79
2023/09/16 12:24:54;;;;;;;3.40;2.42;;;27.10;83.50;;;;;;5054019;28;20029;-80
2023/09/16 12:27:21;;;;;;;2.65;2.30;;;27.10;83.80;;;;;;5056064;28;20025;-79
2023/09/16 12:29:47;;;;;;;3.47;2.42;;;27.10;84.10;;;;;;5055439;28;20025;-80
2023/09/16 12:32:15;;;;;;;2.50;2.30;;;27.10;84.00;;;;;;5055685;28;20506;-79
2023/09/16 12:34:41;;;;;;;3.55;2.33;;;27.10;84.20;;;;;;5052550;28;20025;-80
2023/09/16 12:37:07;;;;;;;4.65;2.33;;;27.10;83.80;;;;;;5044120;28;20029;-80
2023/09/16 12:39:34;;;;;;;2.90;2.35;;;27.10;83.90;;;;;;5049583;28;20025;-80
2023/09/16 12:42:02;;;;;;;2.67;2.17;;;27.10;84.40;;;;;;5046591;28;20024;-80
2023/09/16 12:44:34;;;;;;;2.88;2.05;;;27.10;84.10;;;;;;5042969;28;20026;-80